sensor_id;sensor_type;location;lat;lon;timestamp;P1;durP1;ratioP1;P2;durP2;ratioP2
11911;SDS011;6016;41.928;25.556;2022-09-09T00:00:24;3.60;;;1.98;;
11911;SDS011;6016;41.928;25.556;2022-09-09T00:02:54;2.95;;;1.80;;
11911;SDS011;6016;41.928;25.556;2022-09-09T00:05:31;5.85;;;1.95;;
11911;SDS011;6016;41.928;25.556;2022-09-09T00:08:02;4.05;;;2.22;;
11911;SDS011;6016;41.928;25.556;2022-09-09T00:10:31;2.42;;;1.83;;
11911;SDS011;6016;41.928;25.556;2022-09-09T00:13:02;2.63;;;1.80;;
11911;SDS011;6016;41.928;25.556;2022-09-09T00:15:40;3.25;;;1.88;;
11911;SDS011;6016;41.928;25.556;2022-09-09T00:18:17;3.00;;;1.90;;
11911;SDS011;6016;41.928;25.556;2022-09-09T00:20:55;2.65;;;1.83;;
11911;SDS011;6016;41.928;25.556;2022-09-09T00:23:28;2.33;;;1.80;;
11911;SDS011;6016;41.928;25.556;2022-09-09T00:26:02;3.05;;;1.70;;
11911;SDS011;6016;41.928;25.556;2022-09-09T00:28:36;2.88;;;1.83;;
11911;SDS011;6016;41.928;25.556;2022-09-09T00:31:11;2.33;;;1.92;;
11911;SDS011;6016;41.928;25.556;2022-09-09T00:33:39;5.47;;;1.95;;
11911;SDS011;6016;41.928;25.556;2022-09-09T00:36:12;2.50;;;1.80;;
11911;SDS011;6016;41.928;25.556;2022-09-09T00:38:42;3.40;;;1.60;;
11911;SDS011;6016;41.928;25.556;2022-09-09T00:41:13;2.55;;;1.90;;
11911;SDS011;6016;41.928;25.556;2022-09-09T00:43:46;2.85;;;1.60;;
11911;SDS011;6016;41.928;25.556;2022-09-09T00:46:26;2.00;;;1.80;;
11911;SDS011;6016;41.928;25.556;2022-09-09T00:49:18;3.05;;;1.83;;
11911;SDS011;6016;41.928;25.556;2022-09-09T00:51:59;2.33;;;1.58;;
11911;SDS011;6016;41.928;25.556;2022-09-09T00:54:38;3.42;;;1.75;;
11911;SDS011;6016;41.928;25.556;2022-09-09T00:57:13;2.30;;;1.55;;
11911;SDS011;6016;41.928;25.556;2022-09-09T00:59:56;2.05;;;1.70;;
11911;SDS011;6016;41.928;25.556;2022-09-09T01:02:31;2.05;;;1.58;;
11911;SDS011;6016;41.928;25.556;2022-09-09T01:05:06;1.98;;;1.65;;
11911;SDS011;6016;41.928;25.556;2022-09-09T01:07:40;2.58;;;1.60;;
11911;SDS011;6016;41.928;25.556;2022-09-09T01:10:15;2.92;;;1.65;;
11911;SDS011;6016;41.928;25.556;2022-09-09T01:12:52;2.15;;;1.60;;
11911;SDS011;6016;41.928;25.556;2022-09-09T01:15:26;2.85;;;1.70;;
11911;SDS011;6016;41.928;25.556;2022-09-09T01:17:57;3.22;;;1.77;;
11911;SDS011;6016;41.928;25.556;2022-09-09T01:20:29;3.92;;;2.00;;
11911;SDS011;6016;41.928;25.556;2022-09-09T01:23:16;3.15;;;1.73;;
11911;SDS011;6016;41.928;25.556;2022-09-09T01:26:14;2.97;;;1.92;;
11911;SDS011;6016;41.928;25.556;2022-09-09T01:28:46;2.33;;;1.80;;
11911;SDS011;6016;41.928;25.556;2022-09-09T01:31:17;2.85;;;1.88;;
11911;SDS011;6016;41.928;25.556;2022-09-09T01:33:46;2.85;;;1.80;;
11911;SDS011;6016;41.928;25.556;2022-09-09T01:36:14;3.03;;;1.90;;
11911;SDS011;6016;41.928;25.556;2022-09-09T01:38:47;3.53;;;2.13;;
11911;SDS011;6016;41.928;25.556;2022-09-09T01:41:16;5.40;;;2.13;;
11911;SDS011;6016;41.928;25.556;2022-09-09T01:43:43;2.65;;;1.90;;
11911;SDS011;6016;41.928;25.556;2022-09-09T01:46:10;2.97;;;1.85;;
11911;SDS011;6016;41.928;25.556;2022-09-09T01:48:38;3.67;;;1.88;;
11911;SDS011;6016;41.928;25.556;2022-09-09T01:51:07;4.82;;;2.05;;
11911;SDS011;6016;41.928;25.556;2022-09-09T01:53:35;2.65;;;1.80;;
11911;SDS011;6016;41.928;25.556;2022-09-09T01:56:04;4.53;;;1.80;;
11911;SDS011;6016;41.928;25.556;2022-09-09T01:58:43;2.70;;;1.80;;
11911;SDS011;6016;41.928;25.556;2022-09-09T02:01:25;2.55;;;1.92;;
11911;SDS011;6016;41.928;25.556;2022-09-09T02:04:00;2.30;;;1.80;;
11911;SDS011;6016;41.928;25.556;2022-09-09T02:06:30;4.00;;;1.90;;
11911;SDS011;6016;41.928;25.556;2022-09-09T02:09:03;1.77;;;1.52;;
11911;SDS011;6016;41.928;25.556;2022-09-09T02:11:32;3.88;;;1.75;;
11911;SDS011;6016;41.928;25.556;2022-09-09T02:14:03;2.28;;;1.80;;
11911;SDS011;6016;41.928;25.556;2022-09-09T02:16:34;2.75;;;1.70;;
11911;SDS011;6016;41.928;25.556;2022-09-09T02:19:06;3.22;;;2.00;;
11911;SDS011;6016;41.928;25.556;2022-09-09T02:21:38;2.10;;;1.60;;
11911;SDS011;6016;41.928;25.556;2022-09-09T02:24:06;3.97;;;1.80;;
11911;SDS011;6016;41.928;25.556;2022-09-09T02:26:36;2.53;;;1.80;;
11911;SDS011;6016;41.928;25.556;2022-09-09T02:29:09;2.67;;;1.92;;
11911;SDS011;6016;41.928;25.556;2022-09-09T02:31:41;3.08;;;1.60;;
11911;SDS011;6016;41.928;25.556;2022-09-09T02:34:10;4.05;;;2.25;;
11911;SDS011;6016;41.928;25.556;2022-09-09T02:36:38;3.50;;;2.20;;
11911;SDS011;6016;41.928;25.556;2022-09-09T02:39:08;3.13;;;1.80;;
11911;SDS011;6016;41.928;25.556;2022-09-09T02:41:37;2.85;;;1.90;;
11911;SDS011;6016;41.928;25.556;2022-09-09T02:44:05;4.22;;;2.17;;
11911;SDS011;6016;41.928;25.556;2022-09-09T02:46:39;2.85;;;1.92;;
11911;SDS011;6016;41.928;25.556;2022-09-09T02:49:20;2.20;;;1.90;;
11911;SDS011;6016;41.928;25.556;2022-09-09T02:51:57;3.80;;;1.95;;
11911;SDS011;6016;41.928;25.556;2022-09-09T02:54:28;3.97;;;1.65;;
11911;SDS011;6016;41.928;25.556;2022-09-09T02:56:59;2.72;;;1.83;;
11911;SDS011;6016;41.928;25.556;2022-09-09T02:59:34;2.13;;;1.83;;
11911;SDS011;6016;41.928;25.556;2022-09-09T03:02:01;3.17;;;2.00;;
11911;SDS011;6016;41.928;25.556;2022-09-09T03:04:28;3.20;;;2.10;;
11911;SDS011;6016;41.928;25.556;2022-09-09T03:06:56;5.07;;;1.95;;
11911;SDS011;6016;41.928;25.556;2022-09-09T03:09:23;5.07;;;1.95;;
11911;SDS011;6016;41.928;25.556;2022-09-09T03:11:51;2.63;;;1.80;;
11911;SDS011;6016;41.928;25.556;2022-09-09T03:14:20;3.15;;;1.70;;
11911;SDS011;6016;41.928;25.556;2022-09-09T03:16:51;2.58;;;1.73;;
11911;SDS011;6016;41.928;25.556;2022-09-09T03:19:18;3.60;;;1.77;;
11911;SDS011;6016;41.928;25.556;2022-09-09T03:21:45;2.10;;;1.90;;
11911;SDS011;6016;41.928;25.556;2022-09-09T03:24:12;3.08;;;2.10;;
11911;SDS011;6016;41.928;25.556;2022-09-09T03:26:39;3.20;;;1.73;;
11911;SDS011;6016;41.928;25.556;2022-09-09T03:29:06;4.70;;;2.28;;
11911;SDS011;6016;41.928;25.556;2022-09-09T03:31:33;3.35;;;2.05;;
11911;SDS011;6016;41.928;25.556;2022-09-09T03:34:02;5.72;;;2.05;;
11911;SDS011;6016;41.928;25.556;2022-09-09T03:36:29;3.50;;;2.33;;
11911;SDS011;6016;41.928;25.556;2022-09-09T03:38:56;4.70;;;1.90;;
11911;SDS011;6016;41.928;25.556;2022-09-09T03:41:23;4.57;;;2.00;;
11911;SDS011;6016;41.928;25.556;2022-09-09T03:43:50;2.85;;;2.10;;
11911;SDS011;6016;41.928;25.556;2022-09-09T03:46:17;3.67;;;2.08;;
11911;SDS011;6016;41.928;25.556;2022-09-09T03:48:44;2.42;;;1.80;;
11911;SDS011;6016;41.928;25.556;2022-09-09T03:51:12;4.15;;;2.10;;
11911;SDS011;6016;41.928;25.556;2022-09-09T03:53:41;3.65;;;2.03;;
11911;SDS011;6016;41.928;25.556;2022-09-09T03:56:08;2.42;;;1.75;;
11911;SDS011;6016;41.928;25.556;2022-09-09T03:58:35;3.85;;;1.80;;
11911;SDS011;6016;41.928;25.556;2022-09-09T04:01:04;2.33;;;1.73;;
11911;SDS011;6016;41.928;25.556;2022-09-09T04:03:33;3.15;;;1.80;;
11911;SDS011;6016;41.928;25.556;2022-09-09T04:06:00;2.63;;;1.95;;
11911;SDS011;6016;41.928;25.556;2022-09-09T04:08:30;3.83;;;2.40;;
11911;SDS011;6016;41.928;25.556;2022-09-09T04:10:58;3.08;;;2.00;;
11911;SDS011;6016;41.928;25.556;2022-09-09T04:13:27;4.32;;;2.05;;
11911;SDS011;6016;41.928;25.556;2022-09-09T04:15:54;4.82;;;2.13;;
11911;SDS011;6016;41.928;25.556;2022-09-09T04:18:22;6.65;;;2.63;;
11911;SDS011;6016;41.928;25.556;2022-09-09T04:20:50;3.28;;;2.15;;
11911;SDS011;6016;41.928;25.556;2022-09-09T04:23:17;5.80;;;2.30;;
11911;SDS011;6016;41.928;25.556;2022-09-09T04:25:47;5.55;;;2.70;;
11911;SDS011;6016;41.928;25.556;2022-09-09T04:28:15;7.32;;;2.72;;
11911;SDS011;6016;41.928;25.556;2022-09-09T04:30:42;9.77;;;2.47;;
11911;SDS011;6016;41.928;25.556;2022-09-09T04:33:10;5.75;;;2.28;;
11911;SDS011;6016;41.928;25.556;2022-09-09T04:35:38;6.60;;;2.60;;
11911;SDS011;6016;41.928;25.556;2022-09-09T04:38:05;5.50;;;2.38;;
11911;SDS011;6016;41.928;25.556;2022-09-09T04:40:34;7.05;;;2.42;;
11911;SDS011;6016;41.928;25.556;2022-09-09T04:43:03;5.43;;;2.28;;
11911;SDS011;6016;41.928;25.556;2022-09-09T04:45:30;4.03;;;2.30;;
11911;SDS011;6016;41.928;25.556;2022-09-09T04:47:57;5.15;;;2.22;;
11911;SDS011;6016;41.928;25.556;2022-09-09T04:50:24;6.25;;;2.50;;
11911;SDS011;6016;41.928;25.556;2022-09-09T04:52:51;3.45;;;2.53;;
11911;SDS011;6016;41.928;25.556;2022-09-09T04:55:17;6.47;;;2.45;;
11911;SDS011;6016;41.928;25.556;2022-09-09T04:57:44;6.63;;;2.92;;
11911;SDS011;6016;41.928;25.556;2022-09-09T05:00:14;2.67;;;2.10;;
11911;SDS011;6016;41.928;25.556;2022-09-09T05:02:42;3.63;;;2.40;;
11911;SDS011;6016;41.928;25.556;2022-09-09T05:05:09;4.35;;;2.55;;
11911;SDS011;6016;41.928;25.556;2022-09-09T05:07:36;4.38;;;2.38;;
11911;SDS011;6016;41.928;25.556;2022-09-09T05:10:03;5.97;;;2.63;;
11911;SDS011;6016;41.928;25.556;2022-09-09T05:12:30;9.15;;;2.55;;
11911;SDS011;6016;41.928;25.556;2022-09-09T05:14:57;4.63;;;2.60;;
11911;SDS011;6016;41.928;25.556;2022-09-09T05:17:26;8.80;;;2.72;;
11911;SDS011;6016;41.928;25.556;2022-09-09T05:19:52;5.35;;;2.72;;
11911;SDS011;6016;41.928;25.556;2022-09-09T05:22:19;5.88;;;2.55;;
11911;SDS011;6016;41.928;25.556;2022-09-09T05:24:48;5.30;;;2.60;;
11911;SDS011;6016;41.928;25.556;2022-09-09T05:27:15;3.60;;;2.65;;
11911;SDS011;6016;41.928;25.556;2022-09-09T05:29:43;4.13;;;2.90;;
11911;SDS011;6016;41.928;25.556;2022-09-09T05:32:10;4.70;;;2.70;;
11911;SDS011;6016;41.928;25.556;2022-09-09T05:34:38;5.30;;;2.50;;
11911;SDS011;6016;41.928;25.556;2022-09-09T05:37:05;4.57;;;2.35;;
11911;SDS011;6016;41.928;25.556;2022-09-09T05:39:32;5.45;;;2.63;;
11911;SDS011;6016;41.928;25.556;2022-09-09T05:42:01;6.43;;;2.55;;
11911;SDS011;6016;41.928;25.556;2022-09-09T05:44:30;3.53;;;2.55;;
11911;SDS011;6016;41.928;25.556;2022-09-09T05:46:57;4.90;;;2.97;;
11911;SDS011;6016;41.928;25.556;2022-09-09T05:49:24;3.95;;;2.40;;
11911;SDS011;6016;41.928;25.556;2022-09-09T05:51:52;3.22;;;2.30;;
11911;SDS011;6016;41.928;25.556;2022-09-09T05:54:19;4.80;;;2.38;;
11911;SDS011;6016;41.928;25.556;2022-09-09T05:56:46;6.50;;;2.90;;
11911;SDS011;6016;41.928;25.556;2022-09-09T05:59:14;4.75;;;2.33;;
11911;SDS011;6016;41.928;25.556;2022-09-09T06:01:41;5.78;;;2.72;;
11911;SDS011;6016;41.928;25.556;2022-09-09T06:04:10;4.53;;;2.70;;
11911;SDS011;6016;41.928;25.556;2022-09-09T06:06:37;5.55;;;2.83;;
11911;SDS011;6016;41.928;25.556;2022-09-09T06:09:07;4.57;;;2.50;;
11911;SDS011;6016;41.928;25.556;2022-09-09T06:11:36;6.00;;;2.55;;
11911;SDS011;6016;41.928;25.556;2022-09-09T06:14:04;5.85;;;3.58;;
11911;SDS011;6016;41.928;25.556;2022-09-09T06:16:31;5.63;;;3.20;;
11911;SDS011;6016;41.928;25.556;2022-09-09T06:18:59;7.03;;;3.05;;
11911;SDS011;6016;41.928;25.556;2022-09-09T06:21:28;7.32;;;3.17;;
11911;SDS011;6016;41.928;25.556;2022-09-09T06:23:58;4.25;;;2.90;;
11911;SDS011;6016;41.928;25.556;2022-09-09T06:26:27;4.07;;;2.60;;
11911;SDS011;6016;41.928;25.556;2022-09-09T06:28:56;4.40;;;3.13;;
11911;SDS011;6016;41.928;25.556;2022-09-09T06:31:24;3.85;;;2.97;;
11911;SDS011;6016;41.928;25.556;2022-09-09T06:33:55;7.28;;;2.83;;
11911;SDS011;6016;41.928;25.556;2022-09-09T06:36:23;4.50;;;2.90;;
11911;SDS011;6016;41.928;25.556;2022-09-09T06:38:51;5.20;;;2.70;;
11911;SDS011;6016;41.928;25.556;2022-09-09T06:41:19;6.57;;;3.28;;
11911;SDS011;6016;41.928;25.556;2022-09-09T06:43:48;5.68;;;2.60;;
11911;SDS011;6016;41.928;25.556;2022-09-09T06:46:16;5.35;;;3.20;;
11911;SDS011;6016;41.928;25.556;2022-09-09T06:48:44;3.78;;;2.63;;
11911;SDS011;6016;41.928;25.556;2022-09-09T06:51:12;5.50;;;2.60;;
11911;SDS011;6016;41.928;25.556;2022-09-09T06:53:41;4.53;;;3.10;;
11911;SDS011;6016;41.928;25.556;2022-09-09T06:56:19;3.58;;;3.03;;
11911;SDS011;6016;41.928;25.556;2022-09-09T06:58:49;5.13;;;2.83;;
11911;SDS011;6016;41.928;25.556;2022-09-09T07:01:26;3.65;;;3.03;;
11911;SDS011;6016;41.928;25.556;2022-09-09T07:03:55;4.53;;;3.35;;
11911;SDS011;6016;41.928;25.556;2022-09-09T07:06:24;4.15;;;2.78;;
11911;SDS011;6016;41.928;25.556;2022-09-09T07:08:52;8.27;;;3.70;;
11911;SDS011;6016;41.928;25.556;2022-09-09T07:11:30;9.05;;;2.90;;
11911;SDS011;6016;41.928;25.556;2022-09-09T07:14:00;4.13;;;2.75;;
11911;SDS011;6016;41.928;25.556;2022-09-09T07:16:27;7.50;;;3.00;;
11911;SDS011;6016;41.928;25.556;2022-09-09T07:18:54;4.10;;;2.70;;
11911;SDS011;6016;41.928;25.556;2022-09-09T07:21:23;4.38;;;3.10;;
11911;SDS011;6016;41.928;25.556;2022-09-09T07:23:51;4.50;;;3.00;;
11911;SDS011;6016;41.928;25.556;2022-09-09T07:26:19;4.30;;;3.05;;
11911;SDS011;6016;41.928;25.556;2022-09-09T07:28:47;3.35;;;2.65;;
11911;SDS011;6016;41.928;25.556;2022-09-09T07:31:16;3.55;;;2.80;;
11911;SDS011;6016;41.928;25.556;2022-09-09T07:33:45;3.22;;;2.85;;
11911;SDS011;6016;41.928;25.556;2022-09-09T07:36:13;8.40;;;2.80;;
11911;SDS011;6016;41.928;25.556;2022-09-09T07:38:43;4.40;;;2.83;;
11911;SDS011;6016;41.928;25.556;2022-09-09T07:41:12;4.07;;;2.97;;
11911;SDS011;6016;41.928;25.556;2022-09-09T07:43:41;4.82;;;2.75;;
11911;SDS011;6016;41.928;25.556;2022-09-09T07:46:09;6.05;;;2.92;;
11911;SDS011;6016;41.928;25.556;2022-09-09T07:48:43;5.32;;;2.63;;
11911;SDS011;6016;41.928;25.556;2022-09-09T07:51:11;4.20;;;3.05;;
11911;SDS011;6016;41.928;25.556;2022-09-09T07:53:43;3.92;;;2.63;;
11911;SDS011;6016;41.928;25.556;2022-09-09T07:56:11;4.82;;;3.05;;
11911;SDS011;6016;41.928;25.556;2022-09-09T07:58:39;6.50;;;3.15;;
11911;SDS011;6016;41.928;25.556;2022-09-09T08:01:08;4.05;;;3.50;;
11911;SDS011;6016;41.928;25.556;2022-09-09T08:03:35;4.95;;;3.00;;
11911;SDS011;6016;41.928;25.556;2022-09-09T08:06:04;6.10;;;3.13;;
11911;SDS011;6016;41.928;25.556;2022-09-09T08:08:33;4.28;;;3.60;;
11911;SDS011;6016;41.928;25.556;2022-09-09T08:11:01;5.63;;;3.15;;
11911;SDS011;6016;41.928;25.556;2022-09-09T08:13:30;5.97;;;3.10;;
11911;SDS011;6016;41.928;25.556;2022-09-09T08:16:03;7.63;;;4.85;;
11911;SDS011;6016;41.928;25.556;2022-09-09T08:18:31;6.40;;;3.42;;
11911;SDS011;6016;41.928;25.556;2022-09-09T08:21:05;8.40;;;4.80;;
11911;SDS011;6016;41.928;25.556;2022-09-09T08:23:37;6.72;;;4.40;;
11911;SDS011;6016;41.928;25.556;2022-09-09T08:26:09;7.30;;;5.10;;
11911;SDS011;6016;41.928;25.556;2022-09-09T08:28:38;11.45;;;7.65;;
11911;SDS011;6016;41.928;25.556;2022-09-09T08:31:06;9.73;;;6.35;;
11911;SDS011;6016;41.928;25.556;2022-09-09T08:33:34;8.70;;;5.90;;
11911;SDS011;6016;41.928;25.556;2022-09-09T08:36:03;7.35;;;4.90;;
11911;SDS011;6016;41.928;25.556;2022-09-09T08:38:32;7.38;;;5.28;;
11911;SDS011;6016;41.928;25.556;2022-09-09T08:41:03;18.05;;;5.25;;
11911;SDS011;6016;41.928;25.556;2022-09-09T08:43:39;7.68;;;4.90;;
11911;SDS011;6016;41.928;25.556;2022-09-09T08:46:09;7.75;;;4.70;;
11911;SDS011;6016;41.928;25.556;2022-09-09T08:48:44;6.97;;;4.45;;
11911;SDS011;6016;41.928;25.556;2022-09-09T08:51:21;6.65;;;4.15;;
11911;SDS011;6016;41.928;25.556;2022-09-09T08:53:53;6.18;;;4.32;;
11911;SDS011;6016;41.928;25.556;2022-09-09T08:56:24;4.15;;;3.63;;
11911;SDS011;6016;41.928;25.556;2022-09-09T08:58:53;7.40;;;4.30;;
11911;SDS011;6016;41.928;25.556;2022-09-09T09:01:26;7.70;;;4.43;;
11911;SDS011;6016;41.928;25.556;2022-09-09T09:04:03;4.88;;;4.00;;
11911;SDS011;6016;41.928;25.556;2022-09-09T09:06:41;5.88;;;3.78;;
11911;SDS011;6016;41.928;25.556;2022-09-09T09:09:20;5.55;;;4.20;;
11911;SDS011;6016;41.928;25.556;2022-09-09T09:11:56;7.53;;;3.60;;
11911;SDS011;6016;41.928;25.556;2022-09-09T09:14:26;5.55;;;3.38;;
11911;SDS011;6016;41.928;25.556;2022-09-09T09:16:56;6.47;;;4.22;;
11911;SDS011;6016;41.928;25.556;2022-09-09T09:19:25;6.60;;;3.70;;
11911;SDS011;6016;41.928;25.556;2022-09-09T09:21:54;7.03;;;3.67;;
11911;SDS011;6016;41.928;25.556;2022-09-09T09:24:31;4.38;;;3.38;;
11911;SDS011;6016;41.928;25.556;2022-09-09T09:27:10;7.72;;;3.70;;
11911;SDS011;6016;41.928;25.556;2022-09-09T09:29:39;8.10;;;3.38;;
11911;SDS011;6016;41.928;25.556;2022-09-09T09:32:10;5.10;;;3.50;;
11911;SDS011;6016;41.928;25.556;2022-09-09T09:34:42;5.13;;;2.83;;
11911;SDS011;6016;41.928;25.556;2022-09-09T09:37:16;6.85;;;3.20;;
11911;SDS011;6016;41.928;25.556;2022-09-09T09:39:54;4.05;;;2.90;;
11911;SDS011;6016;41.928;25.556;2022-09-09T09:42:21;7.53;;;3.03;;
11911;SDS011;6016;41.928;25.556;2022-09-09T09:44:49;4.47;;;2.83;;
11911;SDS011;6016;41.928;25.556;2022-09-09T09:47:16;4.43;;;2.72;;
11911;SDS011;6016;41.928;25.556;2022-09-09T09:49:51;3.05;;;2.50;;
11911;SDS011;6016;41.928;25.556;2022-09-09T09:52:21;4.55;;;2.40;;
11911;SDS011;6016;41.928;25.556;2022-09-09T09:54:50;4.55;;;2.50;;
11911;SDS011;6016;41.928;25.556;2022-09-09T09:57:22;3.20;;;2.53;;
11911;SDS011;6016;41.928;25.556;2022-09-09T10:00:00;3.08;;;2.50;;
11911;SDS011;6016;41.928;25.556;2022-09-09T10:02:37;3.95;;;2.65;;
11911;SDS011;6016;41.928;25.556;2022-09-09T10:05:06;4.63;;;2.53;;
11911;SDS011;6016;41.928;25.556;2022-09-09T10:07:39;3.03;;;2.70;;
11911;SDS011;6016;41.928;25.556;2022-09-09T10:10:09;4.20;;;2.30;;
11911;SDS011;6016;41.928;25.556;2022-09-09T10:12:45;4.07;;;2.30;;
11911;SDS011;6016;41.928;25.556;2022-09-09T10:15:29;3.90;;;2.20;;
11911;SDS011;6016;41.928;25.556;2022-09-09T10:18:07;4.82;;;2.15;;
11911;SDS011;6016;41.928;25.556;2022-09-09T10:20:49;3.28;;;2.28;;
11911;SDS011;6016;41.928;25.556;2022-09-09T10:23:27;4.93;;;2.25;;
11911;SDS011;6016;41.928;25.556;2022-09-09T10:26:10;3.88;;;2.17;;
11911;SDS011;6016;41.928;25.556;2022-09-09T10:28:54;3.60;;;2.25;;
11911;SDS011;6016;41.928;25.556;2022-09-09T10:31:48;4.88;;;2.22;;
11911;SDS011;6016;41.928;25.556;2022-09-09T10:34:26;2.72;;;1.95;;
11911;SDS011;6016;41.928;25.556;2022-09-09T10:37:11;2.53;;;2.10;;
11911;SDS011;6016;41.928;25.556;2022-09-09T10:39:53;4.25;;;3.00;;
11911;SDS011;6016;41.928;25.556;2022-09-09T10:42:29;2.60;;;2.10;;
11911;SDS011;6016;41.928;25.556;2022-09-09T10:45:02;2.92;;;2.10;;
11911;SDS011;6016;41.928;25.556;2022-09-09T10:47:46;4.18;;;2.60;;
11911;SDS011;6016;41.928;25.556;2022-09-09T10:50:40;5.13;;;2.47;;
11911;SDS011;6016;41.928;25.556;2022-09-09T10:53:15;3.53;;;2.20;;
11911;SDS011;6016;41.928;25.556;2022-09-09T10:55:51;3.60;;;2.40;;
11911;SDS011;6016;41.928;25.556;2022-09-09T10:58:23;6.70;;;2.38;;
11911;SDS011;6016;41.928;25.556;2022-09-09T11:00:56;4.10;;;2.72;;
11911;SDS011;6016;41.928;25.556;2022-09-09T11:03:27;3.42;;;2.35;;
11911;SDS011;6016;41.928;25.556;2022-09-09T11:05:57;7.32;;;2.60;;
11911;SDS011;6016;41.928;25.556;2022-09-09T11:08:28;2.65;;;2.30;;
11911;SDS011;6016;41.928;25.556;2022-09-09T11:10:57;6.28;;;2.70;;
11911;SDS011;6016;41.928;25.556;2022-09-09T11:13:29;2.70;;;2.50;;
11911;SDS011;6016;41.928;25.556;2022-09-09T11:16:15;3.42;;;2.55;;
11911;SDS011;6016;41.928;25.556;2022-09-09T11:18:48;4.60;;;2.50;;
11911;SDS011;6016;41.928;25.556;2022-09-09T11:21:17;4.82;;;2.70;;
11911;SDS011;6016;41.928;25.556;2022-09-09T11:23:49;3.63;;;2.47;;
11911;SDS011;6016;41.928;25.556;2022-09-09T11:26:23;3.47;;;2.60;;
11911;SDS011;6016;41.928;25.556;2022-09-09T11:28:59;4.13;;;2.60;;
11911;SDS011;6016;41.928;25.556;2022-09-09T11:31:49;5.03;;;3.10;;
11911;SDS011;6016;41.928;25.556;2022-09-09T11:34:34;2.70;;;2.50;;
11911;SDS011;6016;41.928;25.556;2022-09-09T11:37:10;15.00;;;9.85;;
11911;SDS011;6016;41.928;25.556;2022-09-09T11:42:46;4.50;;;2.80;;
11911;SDS011;6016;41.928;25.556;2022-09-09T11:45:22;4.97;;;2.63;;
11911;SDS011;6016;41.928;25.556;2022-09-09T11:47:55;4.15;;;2.80;;
11911;SDS011;6016;41.928;25.556;2022-09-09T11:50:30;3.45;;;2.53;;
11911;SDS011;6016;41.928;25.556;2022-09-09T11:58:39;6.50;;;3.78;;
11911;SDS011;6016;41.928;25.556;2022-09-09T12:03:59;5.18;;;3.00;;
11911;SDS011;6016;41.928;25.556;2022-09-09T12:06:41;6.05;;;2.88;;
11911;SDS011;6016;41.928;25.556;2022-09-09T12:09:13;3.55;;;2.60;;
11911;SDS011;6016;41.928;25.556;2022-09-09T12:11:46;5.10;;;2.80;;
11911;SDS011;6016;41.928;25.556;2022-09-09T12:14:19;4.63;;;2.70;;
11911;SDS011;6016;41.928;25.556;2022-09-09T12:16:48;3.58;;;2.72;;
11911;SDS011;6016;41.928;25.556;2022-09-09T12:19:18;3.95;;;2.55;;
11911;SDS011;6016;41.928;25.556;2022-09-09T12:21:52;3.45;;;2.88;;
11911;SDS011;6016;41.928;25.556;2022-09-09T12:24:29;3.25;;;2.42;;
11911;SDS011;6016;41.928;25.556;2022-09-09T12:27:05;3.20;;;2.60;;
11911;SDS011;6016;41.928;25.556;2022-09-09T12:29:40;5.97;;;2.67;;
11911;SDS011;6016;41.928;25.556;2022-09-09T12:32:15;3.65;;;2.70;;
11911;SDS011;6016;41.928;25.556;2022-09-09T12:34:51;5.32;;;2.70;;
11911;SDS011;6016;41.928;25.556;2022-09-09T12:37:24;4.07;;;2.30;;
11911;SDS011;6016;41.928;25.556;2022-09-09T12:40:02;4.38;;;2.47;;
11911;SDS011;6016;41.928;25.556;2022-09-09T12:42:30;4.80;;;2.50;;
11911;SDS011;6016;41.928;25.556;2022-09-09T12:44:59;4.10;;;2.65;;
11911;SDS011;6016;41.928;25.556;2022-09-09T12:47:34;4.32;;;2.78;;
11911;SDS011;6016;41.928;25.556;2022-09-09T12:50:16;4.10;;;2.55;;
11911;SDS011;6016;41.928;25.556;2022-09-09T12:52:47;4.82;;;3.80;;
11911;SDS011;6016;41.928;25.556;2022-09-09T12:55:19;8.57;;;2.88;;
11911;SDS011;6016;41.928;25.556;2022-09-09T12:57:50;4.43;;;2.53;;
11911;SDS011;6016;41.928;25.556;2022-09-09T13:00:18;4.03;;;2.67;;
11911;SDS011;6016;41.928;25.556;2022-09-09T13:02:49;3.80;;;2.85;;
11911;SDS011;6016;41.928;25.556;2022-09-09T13:05:20;4.93;;;2.75;;
11911;SDS011;6016;41.928;25.556;2022-09-09T13:07:49;5.97;;;2.53;;
11911;SDS011;6016;41.928;25.556;2022-09-09T13:10:20;3.65;;;2.53;;
11911;SDS011;6016;41.928;25.556;2022-09-09T13:12:51;5.43;;;2.45;;
11911;SDS011;6016;41.928;25.556;2022-09-09T13:15:19;3.72;;;2.40;;
11911;SDS011;6016;41.928;25.556;2022-09-09T13:17:50;2.95;;;2.40;;
11911;SDS011;6016;41.928;25.556;2022-09-09T13:20:23;3.78;;;2.42;;
11911;SDS011;6016;41.928;25.556;2022-09-09T13:22:51;4.07;;;2.67;;
11911;SDS011;6016;41.928;25.556;2022-09-09T13:25:22;5.45;;;2.45;;
11911;SDS011;6016;41.928;25.556;2022-09-09T13:27:54;4.70;;;2.80;;
11911;SDS011;6016;41.928;25.556;2022-09-09T13:30:24;7.20;;;2.88;;
11911;SDS011;6016;41.928;25.556;2022-09-09T13:33:01;3.47;;;2.70;;
11911;SDS011;6016;41.928;25.556;2022-09-09T13:35:31;3.65;;;2.50;;
11911;SDS011;6016;41.928;25.556;2022-09-09T13:37:58;3.35;;;2.50;;
11911;SDS011;6016;41.928;25.556;2022-09-09T13:40:33;3.63;;;2.70;;
11911;SDS011;6016;41.928;25.556;2022-09-09T13:43:02;3.78;;;2.30;;
11911;SDS011;6016;41.928;25.556;2022-09-09T13:45:30;6.05;;;2.78;;
11911;SDS011;6016;41.928;25.556;2022-09-09T13:47:59;3.88;;;2.50;;
11911;SDS011;6016;41.928;25.556;2022-09-09T13:50:37;2.88;;;2.20;;
11911;SDS011;6016;41.928;25.556;2022-09-09T13:53:04;4.28;;;2.80;;
11911;SDS011;6016;41.928;25.556;2022-09-09T13:55:30;2.55;;;2.30;;
11911;SDS011;6016;41.928;25.556;2022-09-09T13:57:58;6.50;;;2.67;;
11911;SDS011;6016;41.928;25.556;2022-09-09T14:00:28;4.65;;;2.90;;
11911;SDS011;6016;41.928;25.556;2022-09-09T14:02:56;3.10;;;2.38;;
11911;SDS011;6016;41.928;25.556;2022-09-09T14:05:23;4.20;;;2.25;;
11911;SDS011;6016;41.928;25.556;2022-09-09T14:07:52;3.05;;;2.50;;
11911;SDS011;6016;41.928;25.556;2022-09-09T14:10:19;4.13;;;2.67;;
11911;SDS011;6016;41.928;25.556;2022-09-09T14:12:46;5.47;;;2.60;;
11911;SDS011;6016;41.928;25.556;2022-09-09T14:15:13;4.10;;;2.50;;
11911;SDS011;6016;41.928;25.556;2022-09-09T14:20:24;3.38;;;2.50;;
11911;SDS011;6016;41.928;25.556;2022-09-09T14:22:52;6.97;;;2.90;;
11911;SDS011;6016;41.928;25.556;2022-09-09T14:25:19;3.90;;;2.70;;
11911;SDS011;6016;41.928;25.556;2022-09-09T14:27:46;5.22;;;3.13;;
11911;SDS011;6016;41.928;25.556;2022-09-09T14:30:13;3.92;;;2.65;;
11911;SDS011;6016;41.928;25.556;2022-09-09T14:32:40;5.43;;;2.92;;
11911;SDS011;6016;41.928;25.556;2022-09-09T14:35:07;3.50;;;2.72;;
11911;SDS011;6016;41.928;25.556;2022-09-09T14:37:34;7.88;;;3.40;;
11911;SDS011;6016;41.928;25.556;2022-09-09T14:40:02;5.68;;;2.90;;
11911;SDS011;6016;41.928;25.556;2022-09-09T14:42:30;5.60;;;3.97;;
11911;SDS011;6016;41.928;25.556;2022-09-09T14:44:59;4.43;;;4.03;;
11911;SDS011;6016;41.928;25.556;2022-09-09T14:47:26;6.32;;;4.68;;
11911;SDS011;6016;41.928;25.556;2022-09-09T14:49:53;6.15;;;4.15;;
11911;SDS011;6016;41.928;25.556;2022-09-09T14:52:20;3.30;;;3.00;;
11911;SDS011;6016;41.928;25.556;2022-09-09T14:54:46;5.50;;;3.90;;
11911;SDS011;6016;41.928;25.556;2022-09-09T14:57:17;7.05;;;3.95;;
11911;SDS011;6016;41.928;25.556;2022-09-09T14:59:44;4.10;;;3.40;;
11911;SDS011;6016;41.928;25.556;2022-09-09T15:02:14;7.07;;;3.30;;
11911;SDS011;6016;41.928;25.556;2022-09-09T15:04:43;6.03;;;3.42;;
11911;SDS011;6016;41.928;25.556;2022-09-09T15:07:11;4.95;;;3.78;;
11911;SDS011;6016;41.928;25.556;2022-09-09T15:09:38;6.38;;;3.55;;
11911;SDS011;6016;41.928;25.556;2022-09-09T15:12:05;6.20;;;3.00;;
11911;SDS011;6016;41.928;25.556;2022-09-09T15:14:33;4.22;;;3.30;;
11911;SDS011;6016;41.928;25.556;2022-09-09T15:17:00;7.00;;;3.70;;
11911;SDS011;6016;41.928;25.556;2022-09-09T15:19:27;6.70;;;2.85;;
11911;SDS011;6016;41.928;25.556;2022-09-09T15:21:54;8.02;;;2.95;;
11911;SDS011;6016;41.928;25.556;2022-09-09T15:24:21;6.30;;;2.88;;